Time;durP1;ratioP1;P1;durP2;ratioP2;P2;SDS_P1;SDS_P2;PMS_P1;PMS_P2;Temp;Humidity;BMP_temperature;BMP_pressure;BME280_temperature;BME280_humidity;BME280_pressure;Samples;Min_cycle;Max_cycle;Signal;HPM_P1;HPM_P2
2024/04/04 00:02:02;;;;;;;11.18;4.43;;;13.10;99.90;;;;;;6308200;22;20069;-70
2024/04/04 00:04:30;;;;;;;9.35;4.32;;;13.10;99.90;;;;;;6308265;22;20030;-70
2024/04/04 00:06:56;;;;;;;11.85;4.10;;;13.10;99.90;;;;;;6308549;22;20333;-70
2024/04/04 00:09:22;;;;;;;7.88;4.13;;;13.10;99.90;;;;;;6308153;22;20401;-70
2024/04/04 00:11:50;;;;;;;10.95;5.15;;;13.10;99.90;;;;;;6308161;22;20008;-70
2024/04/04 00:14:16;;;;;;;9.93;4.22;;;13.10;99.90;;;;;;6308191;22;20010;-70
2024/04/04 00:16:42;;;;;;;11.15;4.25;;;13.10;99.90;;;;;;6307841;22;20011;-70
2024/04/04 00:19:08;;;;;;;8.48;3.90;;;13.00;99.90;;;;;;6308059;22;19996;-70
2024/04/04 00:21:34;;;;;;;9.65;4.05;;;13.00;99.90;;;;;;6308602;22;20018;-70
2024/04/04 00:24:00;;;;;;;8.68;3.88;;;13.00;99.90;;;;;;6308619;22;19988;-70
2024/04/04 00:26:26;;;;;;;8.68;3.42;;;13.00;99.90;;;;;;6308836;22;20011;-70
2024/04/04 00:36:46;;;;;;;8.10;3.92;;;13.00;99.90;;;;;;6160067;23;20024;-70
2024/04/04 00:46:55;;;;;;;9.70;3.45;;;12.80;99.90;;;;;;6124193;23;20085;-70
2024/04/04 00:49:42;;;;;;;6.30;3.15;;;12.80;99.90;;;;;;6130136;23;20111;-74
2024/04/04 00:53:16;;;;;;;;;;;;;;;;;;;;;
2024/04/04 00:55:44;;;;;;;8.88;3.70;;;12.80;99.90;;;;;;6046449;23;20455;-71
2024/04/04 00:58:10;;;;;;;6.82;3.05;;;12.70;99.90;;;;;;6102177;23;20010;-70
2024/04/04 01:00:36;;;;;;;8.13;2.80;;;12.70;99.90;;;;;;6246859;22;20007;-71
2024/04/04 01:03:01;;;;;;;6.82;2.75;;;12.70;99.90;;;;;;6304162;22;20014;-70
2024/04/04 01:05:27;;;;;;;8.25;2.58;;;12.70;99.90;;;;;;6306446;22;20007;-70
2024/04/04 01:07:53;;;;;;;8.50;2.85;;;12.70;99.90;;;;;;6307592;22;19995;-70
2024/04/04 01:10:19;;;;;;;9.85;3.00;;;12.70;99.90;;;;;;6307451;22;20011;-70
2024/04/04 01:12:45;;;;;;;9.90;3.55;;;12.70;99.90;;;;;;6279762;22;20074;-70
2024/04/04 01:15:10;;;;;;;8.27;3.08;;;12.60;99.90;;;;;;6307149;22;20006;-71
2024/04/04 01:17:36;;;;;;;9.23;2.50;;;12.60;99.90;;;;;;6306603;22;20061;-70
2024/04/04 01:20:03;;;;;;;11.02;3.47;;;12.60;99.90;;;;;;6306936;22;19999;-73
2024/04/04 01:22:29;;;;;;;8.43;2.90;;;12.60;99.90;;;;;;6307386;22;20389;-70
2024/04/04 01:24:54;;;;;;;8.95;3.10;;;12.60;99.90;;;;;;6306949;22;20033;-70
2024/04/04 01:27:20;;;;;;;6.78;2.80;;;12.60;99.90;;;;;;6279724;22;20041;-70
2024/04/04 01:29:46;;;;;;;10.05;2.85;;;12.60;99.90;;;;;;6307013;22;20008;-72
2024/04/04 01:32:12;;;;;;;9.68;2.63;;;12.60;99.90;;;;;;6307315;22;20007;-70
2024/04/04 01:34:37;;;;;;;8.82;3.05;;;12.60;99.90;;;;;;6307244;22;20025;-82
2024/04/04 01:37:03;;;;;;;4.85;2.53;;;12.60;99.90;;;;;;6306589;22;20011;-82
2024/04/04 01:39:29;;;;;;;9.77;2.80;;;12.60;99.90;;;;;;6306878;22;20034;-83
2024/04/04 01:41:55;;;;;;;10.23;2.97;;;12.60;99.90;;;;;;6306910;22;20006;-82
2024/04/04 01:44:22;;;;;;;8.65;2.63;;;12.60;99.90;;;;;;6279509;22;20007;-74
2024/04/04 01:46:48;;;;;;;6.88;2.30;;;12.60;99.90;;;;;;6306443;22;20445;-82
2024/04/04 01:49:15;;;;;;;8.88;2.97;;;12.60;99.90;;;;;;6306792;22;20023;-81
2024/04/04 01:51:41;;;;;;;8.48;2.92;;;12.60;99.90;;;;;;6306949;22;19999;-80
2024/04/04 01:54:08;;;;;;;6.03;2.42;;;12.60;99.90;;;;;;6307844;22;20019;-69
2024/04/04 01:56:33;;;;;;;6.55;2.35;;;12.60;99.90;;;;;;6307870;22;20014;-72
2024/04/04 01:59:00;;;;;;;11.55;2.97;;;12.60;99.90;;;;;;6307800;22;19999;-70
2024/04/04 02:01:27;;;;;;;8.98;3.13;;;12.60;99.90;;;;;;6307531;22;20018;-70
2024/04/04 02:03:58;;;;;;;6.45;2.30;;;12.60;99.90;;;;;;6307515;22;20329;-70
2024/04/04 02:10:24;;;;;;;8.50;2.80;;;12.60;99.90;;;;;;6156983;23;20108;-69
2024/04/04 02:23:48;;;;;;;10.05;3.03;;;12.50;99.90;;;;;;6151536;23;20072;-70
2024/04/04 02:29:30;;;;;;;11.85;2.60;;;12.50;99.90;;;;;;6170602;23;20099;-70
2024/04/04 02:31:56;;;;;;;9.60;3.40;;;12.40;99.90;;;;;;6181873;23;20387;-70
2024/04/04 02:34:22;;;;;;;8.82;3.15;;;12.40;99.90;;;;;;6254136;22;20057;-70
2024/04/04 02:36:48;;;;;;;9.98;3.40;;;12.40;99.90;;;;;;6306404;22;20043;-70
2024/04/04 02:39:13;;;;;;;19.88;3.58;;;12.40;99.90;;;;;;6306949;22;20417;-70
2024/04/04 02:41:41;;;;;;;9.38;3.20;;;12.40;99.90;;;;;;6307098;22;20014;-69
2024/04/04 02:44:07;;;;;;;15.32;3.60;;;12.40;99.90;;;;;;6306360;22;19999;-71
2024/04/04 02:46:32;;;;;;;10.30;3.60;;;12.40;99.90;;;;;;6306770;22;20321;-72
2024/04/04 02:48:59;;;;;;;10.30;3.50;;;12.40;99.90;;;;;;6306417;22;20003;-70
2024/04/04 02:51:25;;;;;;;8.60;3.22;;;12.40;99.90;;;;;;6305839;22;20074;-70
2024/04/04 02:53:50;;;;;;;9.15;3.60;;;12.30;99.90;;;;;;6306754;22;20437;-70
2024/04/04 02:56:16;;;;;;;11.52;3.00;;;12.30;99.90;;;;;;6308120;22;20090;-72
2024/04/04 02:58:43;;;;;;;8.98;3.53;;;12.30;99.90;;;;;;6308672;22;19995;-71
2024/04/04 03:01:08;;;;;;;9.43;3.33;;;12.30;99.90;;;;;;6308286;22;20022;-71
2024/04/04 03:03:34;;;;;;;8.27;3.50;;;12.30;99.90;;;;;;6308300;22;20009;-70
2024/04/04 03:06:00;;;;;;;12.73;3.88;;;12.30;99.90;;;;;;6308717;22;19999;-70
2024/04/04 03:08:26;;;;;;;11.40;3.45;;;12.30;99.90;;;;;;6308663;22;20078;-69
2024/04/04 03:10:52;;;;;;;11.52;3.50;;;12.30;99.90;;;;;;6308719;22;20003;-72
2024/04/04 03:13:18;;;;;;;6.68;3.08;;;12.30;99.90;;;;;;6308934;22;20046;-70
2024/04/04 03:15:57;;;;;;;6.57;2.97;;;12.30;99.90;;;;;;6308980;22;20022;-71
2024/04/04 03:18:23;;;;;;;9.00;3.35;;;12.30;99.90;;;;;;6280786;22;20093;-69
2024/04/04 03:20:49;;;;;;;9.68;3.00;;;12.30;99.90;;;;;;6308292;22;20006;-70
2024/04/04 03:23:15;;;;;;;10.85;2.95;;;12.30;99.90;;;;;;6308534;22;20003;-70
2024/04/04 03:25:40;;;;;;;8.63;3.10;;;12.30;99.90;;;;;;6307729;22;19996;-70
2024/04/04 03:28:06;;;;;;;11.45;3.47;;;12.30;99.90;;;;;;6308412;22;20022;-70
2024/04/04 03:30:32;;;;;;;11.75;3.55;;;12.30;99.90;;;;;;6308410;22;20372;-70
2024/04/04 03:32:58;;;;;;;10.85;3.28;;;12.30;99.90;;;;;;6308811;22;20007;-70
2024/04/04 03:35:26;;;;;;;11.40;3.08;;;12.30;99.90;;;;;;6309022;22;20007;-69
2024/04/04 03:37:55;;;;;;;6.43;2.70;;;12.30;99.90;;;;;;6308814;22;19999;-70
2024/04/04 03:41:03;;;;;;;6.32;2.53;;;12.30;99.90;;;;;;6308733;22;20004;-69
2024/04/04 03:44:34;;;;;;;5.18;2.45;;;12.30;99.90;;;;;;6213382;23;20008;-69
2024/04/04 03:50:54;;;;;;;10.10;2.88;;;12.30;99.90;;;;;;6124622;23;20833;-69
2024/04/04 03:53:59;;;;;;;;;;;12.20;99.90;;;;;;6124404;23;20464;-70
2024/04/04 04:00:49;;;;;;;8.50;3.17;;;12.20;99.90;;;;;;6093851;23;20017;-69
2024/04/04 04:06:37;;;;;;;8.48;2.85;;;12.10;99.90;;;;;;6104206;23;20075;-70
2024/04/04 04:09:03;;;;;;;11.75;3.78;;;12.10;99.90;;;;;;6221938;22;20009;-70
2024/04/04 04:11:29;;;;;;;4.35;2.83;;;12.10;99.90;;;;;;6250339;22;20003;-69
2024/04/04 04:13:55;;;;;;;9.20;2.80;;;12.00;99.90;;;;;;6275618;22;20012;-70
2024/04/04 04:16:21;;;;;;;13.43;3.08;;;12.00;99.90;;;;;;6276834;22;20012;-70
2024/04/04 04:18:49;;;;;;;9.25;3.45;;;12.00;99.90;;;;;;6276890;22;20497;-70
2024/04/04 04:21:20;;;;;;;9.90;3.08;;;11.90;99.90;;;;;;6276407;22;20404;-70
2024/04/04 04:23:51;;;;;;;10.32;2.78;;;11.90;99.90;;;;;;6249794;22;20372;-73
2024/04/04 04:26:17;;;;;;;7.75;2.20;;;11.90;99.90;;;;;;6277207;22;20090;-70
2024/04/04 04:28:44;;;;;;;7.18;2.30;;;11.80;99.90;;;;;;6276624;22;20445;-69
2024/04/04 04:31:26;;;;;;;6.40;2.22;;;11.80;99.90;;;;;;6276457;22;20000;-69
2024/04/04 04:33:57;;;;;;;4.90;2.28;;;11.80;99.90;;;;;;6276443;22;20004;-70
2024/04/04 04:36:25;;;;;;;11.98;3.10;;;11.80;99.90;;;;;;6276051;22;20011;-70
2024/04/04 04:38:51;;;;;;;8.27;2.92;;;11.70;99.90;;;;;;6276847;22;20007;-71
2024/04/04 04:41:18;;;;;;;5.50;2.60;;;11.80;99.90;;;;;;6276771;22;20441;-70
2024/04/04 04:43:46;;;;;;;8.52;2.80;;;11.80;99.90;;;;;;6277038;22;20124;-69
2024/04/04 04:46:16;;;;;;;7.68;2.58;;;11.80;99.90;;;;;;6276924;22;20046;-82
2024/04/04 04:48:42;;;;;;;6.53;2.45;;;11.70;99.90;;;;;;6276979;22;20000;-82
2024/04/04 04:51:09;;;;;;;7.13;2.80;;;11.70;99.90;;;;;;6276692;22;19999;-82
2024/04/04 04:53:35;;;;;;;7.38;2.78;;;11.70;99.90;;;;;;6276987;22;20000;-79
2024/04/04 04:56:01;;;;;;;9.73;3.25;;;11.70;99.90;;;;;;6298846;22;20015;-81
2024/04/04 04:58:27;;;;;;;9.35;2.72;;;11.70;99.90;;;;;;6280468;22;20013;-79
2024/04/04 05:00:53;;;;;;;10.27;2.47;;;11.70;99.90;;;;;;6307792;22;20074;-81
2024/04/04 05:03:23;;;;;;;10.32;2.30;;;11.70;99.90;;;;;;6307486;22;20413;-81
2024/04/04 05:05:50;;;;;;;7.82;2.60;;;11.60;99.90;;;;;;6308111;22;20029;-69
2024/04/04 05:08:17;;;;;;;5.72;2.25;;;11.60;99.90;;;;;;6308337;22;20003;-70
2024/04/04 05:10:43;;;;;;;6.65;2.17;;;11.60;99.90;;;;;;6307988;22;20007;-69
2024/04/04 05:13:09;;;;;;;9.20;3.00;;;11.60;99.90;;;;;;6308529;22;20321;-69
2024/04/04 05:15:55;;;;;;;7.47;3.35;;;11.60;99.90;;;;;;6308297;22;19999;-70
2024/04/04 05:36:38;;;;;;;8.70;2.92;;;11.50;99.90;;;;;;6007290;23;20027;-69
2024/04/04 05:39:54;;;;;;;6.72;3.08;;;11.60;99.90;;;;;;5969364;24;20487;-70
2024/04/04 05:42:39;;;;;;;;;;;;;;;;;;;;;
2024/04/04 05:45:06;;;;;;;7.13;2.97;;;11.60;99.90;;;;;;6022724;23;20396;-70
2024/04/04 05:47:32;;;;;;;13.23;2.80;;;11.60;99.90;;;;;;6094965;23;20361;-69
2024/04/04 05:49:58;;;;;;;9.30;2.55;;;11.70;99.90;;;;;;6240796;22;20376;-69
2024/04/04 05:52:24;;;;;;;11.63;3.00;;;11.60;99.90;;;;;;6307017;22;19995;-70
2024/04/04 05:54:51;;;;;;;9.27;2.97;;;11.60;99.90;;;;;;6306449;22;20014;-70
2024/04/04 05:57:17;;;;;;;8.15;3.17;;;11.70;99.90;;;;;;6306264;22;20440;-69
2024/04/04 05:59:43;;;;;;;9.15;2.92;;;11.60;99.90;;;;;;6305540;22;20057;-70
2024/04/04 06:02:09;;;;;;;18.10;3.78;;;;;;;;;;6306506;22;20062;-68
2024/04/04 06:04:36;;;;;;;11.40;3.35;;;;;;;;;;6305053;22;20429;-72
2024/04/04 06:07:02;;;;;;;10.77;3.33;;;;;;;;;;6307499;22;20014;-73
2024/04/04 06:09:28;;;;;;;12.00;3.28;;;;;;;;;;6306694;22;20052;-72
2024/04/04 06:11:54;;;;;;;11.50;3.75;;;;;;;;;;6306066;22;20008;-71
2024/04/04 06:14:21;;;;;;;14.23;3.53;;;;;;;;;;6306269;22;19992;-72
2024/04/04 06:16:47;;;;;;;11.80;2.80;;;;;;;;;;6306108;22;20035;-73
2024/04/04 06:19:13;;;;;;;9.30;2.88;;;;;;;;;;6306786;22;20382;-71
2024/04/04 06:21:39;;;;;;;6.05;2.70;;;;;;;;;;6306625;22;20423;-71
2024/04/04 06:24:06;;;;;;;7.90;3.10;;;;;;;;;;6306806;22;19996;-72
2024/04/04 06:26:32;;;;;;;5.57;3.00;;;;;;;;;;6303967;22;19999;-69
2024/04/04 06:28:58;;;;;;;6.22;2.40;;;;;;;;;;6303673;22;20026;-69
2024/04/04 06:31:25;;;;;;;1830.03;256.10;;;;;;;;;;6303534;22;20018;-70
2024/04/04 06:33:51;;;;;;;106.20;40.97;;;;;;;;;;6305012;22;20429;-69
2024/04/04 06:36:17;;;;;;;40.83;13.07;;;12.30;99.90;;;;;;6306630;22;20437;-71
2024/04/04 06:38:43;;;;;;;74.93;25.45;;;12.30;99.90;;;;;;6306475;22;20003;-71
2024/04/04 06:41:09;;;;;;;36.00;13.05;;;12.40;99.90;;;;;;6306394;22;19999;-71
2024/04/04 06:43:35;;;;;;;218.32;52.92;;;12.60;99.90;;;;;;6306160;22;20071;-70
2024/04/04 06:46:01;;;;;;;39.28;12.15;;;12.80;99.90;;;;;;6304001;22;20706;-72
2024/04/04 06:48:27;;;;;;;24.83;7.85;;;12.90;99.90;;;;;;6302488;22;20003;-70
2024/04/04 06:50:53;;;;;;;15.07;3.83;;;13.00;99.90;;;;;;6304478;22;21007;-71
2024/04/04 06:53:23;;;;;;;12.50;4.40;;;13.10;99.90;;;;;;6306573;22;20010;-71
2024/04/04 06:56:20;;;;;;;8.50;2.30;;;13.20;99.90;;;;;;6304773;22;20038;-71
2024/04/04 06:58:49;;;;;;;9.10;3.58;;;13.20;99.90;;;;;;6223756;22;20588;-71
2024/04/04 07:01:59;;;;;;;5.75;1.73;;;13.30;99.90;;;;;;6304490;22;20328;-71
2024/04/04 07:05:04;;;;;;;8.82;2.15;;;13.30;99.90;;;;;;6304885;22;20008;-70
2024/04/04 07:07:32;;;;;;;7.90;2.20;;;13.30;99.90;;;;;;6298831;22;20011;-71
2024/04/04 07:10:08;;;;;;;7.65;2.17;;;13.30;99.90;;;;;;6305857;22;20400;-71
2024/04/04 07:12:57;;;;;;;6.43;1.88;;;13.40;99.90;;;;;;6305913;22;20311;-71
2024/04/04 07:16:19;;;;;;;4.25;1.80;;;13.40;99.90;;;;;;6290789;22;20004;-71
2024/04/04 07:18:45;;;;;;;4.78;1.63;;;13.40;99.90;;;;;;6211216;23;20358;-71
2024/04/04 07:21:31;;;;;;;9.00;2.50;;;13.40;99.90;;;;;;6211338;23;20036;-71
2024/04/04 07:23:57;;;;;;;6.32;2.40;;;13.50;99.90;;;;;;6292146;22;20388;-71
2024/04/04 07:26:23;;;;;;;5.32;1.80;;;13.50;99.90;;;;;;6305992;22;20429;-71
2024/04/04 07:28:49;;;;;;;5.53;1.80;;;13.50;99.90;;;;;;6305742;22;20018;-71
2024/04/04 07:31:15;;;;;;;6.20;1.60;;;13.50;99.90;;;;;;6306193;22;20011;-71
2024/04/04 07:33:41;;;;;;;7.57;1.60;;;13.60;99.90;;;;;;6306240;22;19999;-72
2024/04/04 07:36:07;;;;;;;7.85;2.03;;;13.60;99.90;;;;;;6306460;22;20015;-71
2024/04/04 07:38:33;;;;;;;5.57;1.70;;;13.70;99.90;;;;;;6305973;22;20021;-71
2024/04/04 07:41:04;;;;;;;8.32;1.77;;;13.80;99.90;;;;;;6306872;22;19999;-71
2024/04/04 07:43:30;;;;;;;6.40;1.60;;;13.80;99.90;;;;;;6306594;22;20015;-71
2024/04/04 07:45:56;;;;;;;6.55;2.95;;;13.90;99.90;;;;;;6307305;22;20130;-72
2024/04/04 07:48:22;;;;;;;4.88;1.45;;;14.00;99.90;;;;;;6308108;22;20023;-71
2024/04/04 07:50:49;;;;;;;6.80;1.40;;;14.00;99.90;;;;;;6308441;22;20004;-70
2024/04/04 07:53:15;;;;;;;8.05;1.63;;;14.10;99.90;;;;;;6308200;22;20000;-72
2024/04/04 07:55:41;;;;;;;7.78;1.80;;;14.10;99.90;;;;;;6307614;22;20337;-71
2024/04/04 07:58:07;;;;;;;5.53;2.05;;;14.20;99.90;;;;;;6307855;22;20078;-70
2024/04/04 08:00:33;;;;;;;6.28;1.60;;;14.20;99.90;;;;;;6279087;22;20006;-71
2024/04/04 08:02:59;;;;;;;11.95;1.90;;;14.20;99.90;;;;;;6306867;22;20003;-73
2024/04/04 08:05:27;;;;;;;5.15;1.50;;;14.30;99.90;;;;;;6306414;22;19999;-72
2024/04/04 08:07:53;;;;;;;7.13;1.73;;;14.30;99.90;;;;;;6307648;22;19999;-72
2024/04/04 08:10:19;;;;;;;7.97;1.60;;;14.40;99.90;;;;;;6307362;22;20358;-73
2024/04/04 08:12:46;;;;;;;12.35;1.77;;;14.40;99.90;;;;;;6307580;22;20004;-72
2024/04/04 08:15:12;;;;;;;8.35;1.50;;;14.50;99.90;;;;;;6307422;22;20002;-72
2024/04/04 08:17:42;;;;;;;6.00;1.30;;;14.50;99.90;;;;;;6306843;22;20022;-72
2024/04/04 08:20:14;;;;;;;5.22;1.45;;;14.60;99.90;;;;;;6308699;22;20003;-71
2024/04/04 08:22:41;;;;;;;7.53;2.30;;;14.70;99.90;;;;;;6308248;22;20007;-71
2024/04/04 08:25:07;;;;;;;9.13;1.67;;;14.70;99.90;;;;;;6280756;22;20374;-71
2024/04/04 08:27:33;;;;;;;4.68;1.17;;;14.70;99.90;;;;;;6306479;22;20337;-71
2024/04/04 08:34:14;;;;;;;5.07;1.30;;;14.80;99.90;;;;;;6153166;23;20475;-71
2024/04/04 08:57:47;;;;;;;7.00;1.30;;;15.20;99.90;;;;;;6138217;23;20095;-71
2024/04/04 09:00:20;;;;;;;5.05;1.23;;;15.30;99.90;;;;;;6211683;23;20015;-71
2024/04/04 09:02:46;;;;;;;5.40;1.30;;;15.30;99.90;;;;;;6267246;22;20019;-71
2024/04/04 09:05:12;;;;;;;7.32;1.67;;;15.30;99.90;;;;;;6306703;22;19996;-71
2024/04/04 09:07:38;;;;;;;5.07;1.17;;;15.30;99.90;;;;;;6307212;22;20003;-71
2024/04/04 09:10:05;;;;;;;10.18;1.85;;;15.20;99.90;;;;;;6307436;22;20337;-71
2024/04/04 09:12:32;;;;;;;6.97;1.48;;;15.30;99.90;;;;;;6306471;22;20014;-70
2024/04/04 09:15:01;;;;;;;9.00;1.80;;;15.30;99.90;;;;;;6305404;22;20416;-71
2024/04/04 09:17:27;;;;;;;8.88;1.75;;;15.40;99.90;;;;;;6305103;22;20011;-71
2024/04/04 09:19:54;;;;;;;9.93;1.50;;;15.50;99.90;;;;;;6305027;22;20425;-71
2024/04/04 09:22:21;;;;;;;10.68;1.70;;;15.70;99.90;;;;;;6305138;22;20414;-71
2024/04/04 09:24:48;;;;;;;7.55;1.58;;;15.90;99.90;;;;;;6305341;22;20007;-71
2024/04/04 09:27:20;;;;;;;7.68;2.17;;;15.90;99.90;;;;;;6305558;22;20414;-71
2024/04/04 09:29:51;;;;;;;7.35;1.17;;;16.00;99.90;;;;;;6307295;22;20071;-71
2024/04/04 09:32:19;;;;;;;6.93;1.70;;;16.10;99.90;;;;;;6307242;22;20512;-71
2024/04/04 09:34:46;;;;;;;8.95;1.95;;;16.10;99.90;;;;;;6280133;22;20451;-70
2024/04/04 09:37:16;;;;;;;7.43;2.05;;;16.10;99.90;;;;;;6280231;22;20090;-69
2024/04/04 09:39:42;;;;;;;7.72;1.67;;;;;;;;;;6307446;22;19999;-71
2024/04/04 09:42:09;;;;;;;9.40;1.75;;;;;;;;;;6305620;22;20398;-71
2024/04/04 09:44:38;;;;;;;10.27;1.95;;;16.10;99.90;;;;;;6307111;22;20003;-71
2024/04/04 09:47:04;;;;;;;11.30;1.90;;;16.10;99.90;;;;;;6307043;22;20094;-71
2024/04/04 09:49:32;;;;;;;9.57;1.80;;;16.10;99.90;;;;;;6306599;22;20003;-72
2024/04/04 09:52:01;;;;;;;6.03;1.80;;;16.20;99.90;;;;;;6305950;22;19999;-71
2024/04/04 09:54:28;;;;;;;8.25;1.70;;;16.20;99.80;;;;;;6306825;22;19999;-71
2024/04/04 09:56:56;;;;;;;16.17;1.88;;;16.20;99.90;;;;;;6275695;22;20015;-71
2024/04/04 09:59:26;;;;;;;12.02;1.75;;;16.20;99.90;;;;;;6276595;22;19996;-71
2024/04/04 10:01:52;;;;;;;8.90;1.52;;;16.30;99.90;;;;;;6276856;22;20000;-71
2024/04/04 10:04:31;;;;;;;6.78;1.58;;;16.40;99.90;;;;;;6276145;22;19999;-71
2024/04/04 10:28:39;;;;;;;8.82;1.52;;;16.90;96.30;;;;;;6122312;23;20069;-73
2024/04/04 10:31:58;;;;;;;11.00;1.77;;;16.90;96.10;;;;;;6031249;23;20031;-71
2024/04/04 10:34:24;;;;;;;9.68;1.55;;;17.00;95.90;;;;;;6012370;23;20505;-71
2024/04/04 10:36:50;;;;;;;5.35;1.40;;;17.10;95.50;;;;;;6121522;23;20429;-70
2024/04/04 10:39:17;;;;;;;6.20;1.33;;;17.10;96.10;;;;;;6148020;22;20477;-70
2024/04/04 10:41:48;;;;;;;7.88;1.52;;;17.10;95.40;;;;;;6273666;22;20006;-71
2024/04/04 10:44:18;;;;;;;4.25;1.23;;;17.20;95.40;;;;;;6274264;22;20357;-70
2024/04/04 10:46:49;;;;;;;7.65;1.38;;;17.20;95.00;;;;;;6274418;22;20329;-71
2024/04/04 10:49:18;;;;;;;9.95;1.27;;;17.30;95.20;;;;;;6274865;22;20338;-72
2024/04/04 10:51:54;;;;;;;5.85;1.60;;;17.30;95.20;;;;;;6274910;22;20362;-70
2024/04/04 10:54:21;;;;;;;10.45;1.60;;;17.30;95.00;;;;;;6274100;22;20023;-72
2024/04/04 10:56:47;;;;;;;8.57;1.60;;;17.40;94.70;;;;;;6303877;22;20019;-71
2024/04/04 10:59:17;;;;;;;6.43;1.42;;;17.40;94.40;;;;;;6305957;22;19995;-71
2024/04/04 11:01:51;;;;;;;8.60;2.85;;;17.40;95.30;;;;;;6305598;22;20360;-72
2024/04/04 11:04:18;;;;;;;8.15;2.03;;;17.50;94.40;;;;;;6306065;22;20501;-72
2024/04/04 11:06:46;;;;;;;10.85;1.90;;;17.50;94.40;;;;;;6306057;22;20000;-72
2024/04/04 11:09:15;;;;;;;8.68;1.75;;;17.60;95.10;;;;;;6305031;22;20000;-72
2024/04/04 11:11:45;;;;;;;11.15;1.60;;;17.60;94.10;;;;;;6304460;22;20006;-76
2024/04/04 11:14:11;;;;;;;7.78;1.77;;;17.70;94.00;;;;;;6305349;22;20440;-77
2024/04/04 11:16:38;;;;;;;8.88;1.80;;;17.80;93.90;;;;;;6307471;22;20039;-77
2024/04/04 11:19:09;;;;;;;11.15;1.92;;;17.80;93.30;;;;;;6307082;22;20010;-77
2024/04/04 11:21:35;;;;;;;8.20;1.70;;;17.80;93.40;;;;;;6307157;22;20333;-78
2024/04/04 11:24:01;;;;;;;10.38;1.70;;;17.80;93.00;;;;;;6307148;22;20433;-76
2024/04/04 11:26:28;;;;;;;11.85;1.60;;;17.80;93.40;;;;;;6305437;22;20467;-79
2024/04/04 11:28:54;;;;;;;12.38;1.80;;;17.80;92.90;;;;;;6306852;22;20460;-77
2024/04/04 11:31:20;;;;;;;10.40;2.33;;;17.80;92.20;;;;;;6308242;22;20011;-73
2024/04/04 11:33:46;;;;;;;8.23;2.17;;;17.80;92.60;;;;;;6309202;22;20033;-71
2024/04/04 11:36:12;;;;;;;6.78;1.80;;;17.80;92.10;;;;;;6308280;22;20023;-71
2024/04/04 11:38:38;;;;;;;9.55;2.20;;;17.70;92.20;;;;;;6309175;22;20003;-71
2024/04/04 11:41:04;;;;;;;8.90;1.65;;;17.60;92.80;;;;;;6307326;22;20007;-72
2024/04/04 11:43:51;;;;;;;9.88;1.85;;;17.60;92.00;;;;;;6308916;22;20321;-71
2024/04/04 11:54:44;;;;;;;7.68;2.05;;;17.50;92.70;;;;;;6133987;23;20341;-71
2024/04/04 12:01:59;;;;;;;11.00;2.40;;;17.50;93.90;;;;;;6124732;23;20024;-72
2024/04/04 12:03:59;;;;;;;10.32;2.35;;;17.60;93.30;;;;;;6030092;23;20011;-72
2024/04/04 12:09:58;;;;;;;9.13;2.47;;;17.60;93.00;;;;;;6046202;23;20012;-71
2024/04/04 12:12:24;;;;;;;10.05;1.83;;;17.60;92.90;;;;;;6070414;23;20386;-71
2024/04/04 12:14:50;;;;;;;6.97;1.65;;;17.60;92.80;;;;;;6264099;22;20342;-71
2024/04/04 12:17:19;;;;;;;7.47;2.17;;;17.60;92.90;;;;;;6276196;22;20389;-71
2024/04/04 12:19:45;;;;;;;13.00;2.42;;;17.60;92.80;;;;;;6277158;22;20046;-71
2024/04/04 12:22:11;;;;;;;8.35;1.80;;;17.60;92.80;;;;;;6276755;22;20343;-73
2024/04/04 12:24:37;;;;;;;9.98;2.08;;;17.60;93.00;;;;;;6276920;22;20003;-71
2024/04/04 12:27:04;;;;;;;9.32;2.50;;;17.60;93.20;;;;;;6276529;22;20008;-70
2024/04/04 12:29:30;;;;;;;8.82;2.40;;;17.60;92.90;;;;;;6276046;22;20038;-72
2024/04/04 12:31:55;;;;;;;9.52;1.63;;;17.60;92.80;;;;;;6277110;22;20003;-71
2024/04/04 12:34:21;;;;;;;8.25;1.70;;;17.60;92.30;;;;;;6276393;22;20012;-71
2024/04/04 12:36:47;;;;;;;7.00;2.03;;;17.60;92.30;;;;;;6275327;22;20054;-71
2024/04/04 12:39:14;;;;;;;7.82;1.90;;;17.60;92.40;;;;;;6276780;22;20007;-71
2024/04/04 12:41:41;;;;;;;10.20;2.00;;;17.60;91.80;;;;;;6277064;22;20094;-71
2024/04/04 12:44:08;;;;;;;8.32;1.50;;;17.60;91.70;;;;;;6276879;22;20012;-71
2024/04/04 12:46:35;;;;;;;7.72;1.70;;;17.60;91.90;;;;;;6273620;22;20422;-72
2024/04/04 12:49:01;;;;;;;12.10;2.25;;;17.60;92.10;;;;;;6274308;22;20000;-71
2024/04/04 12:51:27;;;;;;;8.10;2.22;;;17.70;92.00;;;;;;6274074;22;20000;-71
2024/04/04 12:53:53;;;;;;;8.43;1.67;;;17.70;91.60;;;;;;6286126;22;20039;-71
2024/04/04 12:56:20;;;;;;;6.63;1.60;;;17.70;90.50;;;;;;6306910;22;20385;-71
2024/04/04 12:58:46;;;;;;;7.60;1.90;;;17.70;90.30;;;;;;6307303;22;20019;-71
2024/04/04 13:01:12;;;;;;;7.15;2.20;;;17.60;90.40;;;;;;6306942;22;20509;-73
2024/04/04 13:03:41;;;;;;;3.90;1.58;;;17.60;90.40;;;;;;6306765;22;20023;-71
2024/04/04 13:06:09;;;;;;;4.45;1.60;;;17.70;90.80;;;;;;6307423;22;20013;-71
2024/04/04 13:08:35;;;;;;;6.70;1.50;;;17.70;90.80;;;;;;6307662;22;20006;-72
2024/04/04 13:11:00;;;;;;;4.95;1.70;;;17.70;90.80;;;;;;6306929;22;20082;-71
2024/04/04 13:13:26;;;;;;;8.98;1.67;;;17.70;90.60;;;;;;6307351;22;19995;-72
2024/04/04 13:15:52;;;;;;;8.77;1.92;;;17.60;90.50;;;;;;6307260;22;20011;-72
2024/04/04 13:18:18;;;;;;;5.68;1.55;;;17.50;90.60;;;;;;6307909;22;20011;-78
2024/04/04 13:20:45;;;;;;;7.35;1.85;;;17.50;90.60;;;;;;6307755;22;20006;-79
2024/04/04 13:23:11;;;;;;;6.47;2.08;;;17.50;90.90;;;;;;6306984;22;20010;-77
2024/04/04 13:25:37;;;;;;;7.13;1.90;;;17.40;91.80;;;;;;6307201;22;19999;-80
2024/04/04 13:28:02;;;;;;;6.55;2.60;;;17.40;92.00;;;;;;6307018;22;19999;-76
2024/04/04 13:30:29;;;;;;;7.88;2.30;;;17.40;92.00;;;;;;6307487;22;20053;-77
2024/04/04 13:32:55;;;;;;;5.75;2.35;;;17.30;92.00;;;;;;6307149;22;20074;-76
2024/04/04 13:35:21;;;;;;;7.93;3.42;;;17.30;91.70;;;;;;6307077;22;20033;-77
2024/04/04 13:37:47;;;;;;;7.00;2.70;;;17.20;92.20;;;;;;6307495;22;20337;-71
2024/04/04 13:40:13;;;;;;;11.70;4.35;;;17.30;92.80;;;;;;6307866;22;20002;-71
2024/04/04 13:42:39;;;;;;;9.38;4.20;;;17.30;93.10;;;;;;6307965;22;20302;-71
2024/04/04 13:45:06;;;;;;;7.35;3.70;;;17.30;93.10;;;;;;6306755;22;20009;-71
2024/04/04 13:47:32;;;;;;;7.22;3.80;;;17.30;93.60;;;;;;6305034;22;19996;-71
2024/04/04 13:56:56;;;;;;;13.57;4.68;;;17.30;94.10;;;;;;6121230;23;20075;-71
2024/04/04 14:00:04;;;;;;;9.93;4.57;;;17.30;93.80;;;;;;6118552;23;20100;-71
2024/04/04 14:03:40;;;;;;;9.70;4.18;;;17.30;93.80;;;;;;6273960;22;20008;-71
2024/04/04 14:09:17;;;;;;;12.05;4.43;;;17.20;93.70;;;;;;6179329;23;20059;-71
2024/04/04 14:15:20;;;;;;;;;;;17.10;93.50;;;;;;6152642;23;20006;-71
2024/04/04 14:17:46;;;;;;;10.48;5.13;;;17.10;93.70;;;;;;6171454;22;20233;-72
2024/04/04 14:20:13;;;;;;;8.88;3.97;;;17.10;93.90;;;;;;6276427;22;20007;-70
2024/04/04 14:22:39;;;;;;;13.55;5.32;;;17.10;94.10;;;;;;6276598;22;20010;-71
2024/04/04 14:25:05;;;;;;;10.73;4.93;;;17.20;94.20;;;;;;6276359;22;20004;-71
2024/04/04 14:27:30;;;;;;;7.97;4.78;;;17.20;94.00;;;;;;6276381;22;19996;-71
2024/04/04 14:29:57;;;;;;;10.70;5.10;;;17.20;94.10;;;;;;6276621;22;20019;-71
2024/04/04 14:32:23;;;;;;;16.52;6.85;;;17.20;94.10;;;;;;6276091;22;20003;-71
2024/04/04 14:34:49;;;;;;;13.18;6.13;;;17.30;94.00;;;;;;6275991;22;20003;-71
2024/04/04 14:37:15;;;;;;;13.07;5.65;;;17.30;92.90;;;;;;6275927;22;20011;-71
2024/04/04 14:39:41;;;;;;;11.35;6.55;;;17.30;93.40;;;;;;6276005;22;20010;-72
2024/04/04 14:42:06;;;;;;;15.45;6.55;;;17.30;94.10;;;;;;6276479;22;20012;-71
2024/04/04 14:44:32;;;;;;;10.25;6.10;;;17.30;94.30;;;;;;6276326;22;20477;-71
2024/04/04 14:46:58;;;;;;;12.77;6.75;;;17.30;94.00;;;;;;6276264;22;19999;-72
2024/04/04 14:49:24;;;;;;;12.18;6.90;;;17.40;94.30;;;;;;6276407;22;20071;-71
2024/04/04 14:51:53;;;;;;;13.32;7.47;;;17.40;94.30;;;;;;6278006;22;20483;-71
2024/04/04 14:54:22;;;;;;;14.63;6.45;;;17.40;94.30;;;;;;6289598;22;20050;-71
2024/04/04 14:56:48;;;;;;;11.48;6.90;;;17.40;94.50;;;;;;6309462;22;20015;-71
2024/04/04 14:59:14;;;;;;;13.80;6.97;;;17.40;94.50;;;;;;6309145;22;19995;-71
2024/04/04 15:01:39;;;;;;;15.38;7.25;;;17.30;94.20;;;;;;6308420;22;20007;-71
2024/04/04 15:04:06;;;;;;;8.45;6.45;;;17.30;94.30;;;;;;6308922;22;20021;-71
2024/04/04 15:06:32;;;;;;;10.43;5.97;;;17.30;94.20;;;;;;6308884;22;20010;-71
2024/04/04 15:08:58;;;;;;;11.98;7.13;;;17.30;94.20;;;;;;6308346;22;19999;-72
2024/04/04 15:11:24;;;;;;;17.38;7.38;;;17.30;94.30;;;;;;6307876;22;20003;-71
2024/04/04 15:13:50;;;;;;;12.82;8.52;;;17.20;94.10;;;;;;6308478;22;20302;-69
2024/04/04 15:16:16;;;;;;;15.20;8.38;;;17.20;94.50;;;;;;6307821;22;20011;-71
2024/04/04 15:18:42;;;;;;;11.30;7.25;;;17.10;94.70;;;;;;6308851;22;20325;-71
2024/04/04 15:21:09;;;;;;;11.00;7.20;;;17.10;95.00;;;;;;6308808;22;20007;-71